aviador You're here:

KOCQ Decoded Metar

in
Report Time2018-07-19 05:15:00
UTC Time2018-07-19 05:41:36
Flight Rules vfr VFR
WindCalm
Visibility9999 m
Phenomena:N/A
Clouds:N/A
Expected CloudBase > 400 ft AGL from Temp-Dew spread
CeilingNone
Temp15°C
Dew Point14°C (94% RH)
QNH1017 hPa
Raw Report
KOCQ 190515Z AUTO 00000KT 10SM CLR 15/14 A3004 RMK AO1
T01500135=

Extra information for KOCQ:More info

Social comments